createdAt,value
2019-06-07T00:09:27.557Z,15.67
2019-06-07T00:19:28.724Z,15.46
2019-06-07T00:29:29.889Z,15.50
2019-06-07T00:39:31.115Z,15.48
2019-06-07T00:49:52.119Z,15.41
2019-06-07T00:59:53.547Z,15.25
2019-06-07T01:09:54.702Z,15.14
2019-06-07T01:19:55.736Z,15.10
2019-06-07T01:29:57.977Z,14.93
2019-06-07T01:39:59.141Z,14.94
2019-06-07T01:50:00.317Z,14.83
2019-06-07T02:00:14.661Z,14.70
2019-06-07T02:10:16.503Z,14.64
2019-06-07T02:20:17.754Z,14.47
2019-06-07T02:40:24.545Z,14.55
2019-06-07T02:50:29.193Z,14.41
2019-06-07T03:01:00.615Z,14.31
2019-06-07T03:10:48.292Z,14.21
2019-06-07T03:21:04.673Z,14.28
2019-06-07T03:31:02.210Z,14.41
2019-06-07T03:40:56.949Z,14.33
2019-06-07T03:51:04.634Z,14.35
2019-06-07T04:01:02.201Z,14.52
2019-06-07T04:11:03.432Z,14.76
2019-06-07T04:21:04.450Z,15.06
2019-06-07T04:31:05.578Z,15.68
2019-06-07T04:41:07.109Z,15.91
2019-06-07T04:51:11.266Z,15.92
2019-06-07T05:01:26.913Z,16.17
2019-06-07T05:11:15.634Z,15.85
2019-06-07T05:21:16.699Z,16.52
2019-06-07T05:31:17.837Z,16.76
2019-06-07T05:41:18.960Z,18.00
2019-06-07T05:51:20.038Z,19.24
2019-06-07T06:11:43.328Z,36.10
2019-06-07T06:21:29.417Z,39.60
2019-06-07T06:31:31.493Z,41.71
2019-06-07T06:41:48.479Z,40.37
2019-06-07T06:51:36.044Z,43.56
2019-06-07T07:01:37.128Z,48.18
2019-06-07T07:11:52.358Z,45.60
2019-06-07T07:21:42.052Z,46.40
2019-06-07T07:31:43.188Z,49.37
2019-06-07T07:42:04.485Z,51.90
2019-06-07T07:51:49.052Z,53.16
2019-06-07T08:01:53.069Z,54.58
2019-06-07T08:12:00.084Z,51.70
2019-06-07T08:21:56.597Z,52.89
2019-06-07T08:31:58.688Z,51.36
2019-06-07T08:42:15.175Z,52.45
2019-06-07T08:52:11.508Z,49.28
2019-06-07T09:02:22.864Z,53.70
2019-06-07T09:12:11.798Z,52.53
2019-06-07T09:22:13.084Z,53.17
2019-06-07T09:32:18.023Z,51.26
2019-06-07T09:42:17.413Z,50.05
2019-06-07T09:52:18.921Z,52.26
2019-06-07T10:02:20.345Z,53.00
2019-06-07T10:12:21.379Z,52.89
2019-06-07T10:22:23.449Z,52.16
2019-06-07T10:32:24.704Z,48.95
2019-06-07T10:42:25.844Z,53.16
2019-06-07T10:52:27.006Z,53.79
2019-06-07T11:02:28.389Z,48.94
2019-06-07T11:12:29.753Z,38.99
2019-06-07T11:22:31.141Z,33.75
2019-06-07T11:32:32.977Z,32.08
2019-06-07T11:42:34.114Z,31.49
2019-06-07T11:52:35.255Z,31.39
2019-06-07T12:02:36.511Z,30.56
2019-06-07T12:12:37.802Z,31.24
2019-06-07T12:22:38.887Z,31.38
2019-06-07T12:32:39.924Z,31.73
2019-06-07T12:42:41.051Z,32.50
2019-06-07T12:52:42.223Z,32.53
2019-06-07T13:02:43.358Z,32.91
2019-06-07T13:12:45.292Z,33.54
2019-06-07T13:22:46.459Z,33.07
2019-06-07T13:32:47.650Z,33.35
2019-06-07T13:42:48.679Z,32.87
2019-06-07T13:52:49.723Z,34.15
2019-06-07T14:02:51.990Z,35.04
2019-06-07T14:12:53.016Z,34.57
2019-06-07T14:22:54.760Z,35.12
2019-06-07T14:32:55.876Z,34.90
2019-06-07T14:42:57.000Z,35.31
2019-06-07T14:52:59.405Z,36.12
2019-06-07T15:03:00.770Z,35.02
2019-06-07T15:13:02.107Z,34.58
2019-06-07T15:23:05.379Z,35.33
2019-06-07T15:33:06.573Z,35.40
2019-06-07T15:43:07.684Z,35.23
2019-06-07T15:53:08.859Z,33.75
2019-06-07T16:03:10.345Z,33.76
2019-06-07T16:13:11.402Z,34.01
2019-06-07T16:23:13.618Z,33.73
2019-06-07T16:33:14.728Z,33.51
2019-06-07T16:43:17.806Z,33.13
2019-06-07T16:53:18.840Z,32.55
2019-06-07T17:03:19.914Z,32.08
2019-06-07T17:13:33.105Z,31.52
2019-06-07T17:23:24.565Z,31.52
2019-06-07T17:33:26.829Z,31.22
2019-06-07T17:43:27.961Z,30.81
2019-06-07T17:53:30.607Z,30.55
2019-06-07T18:03:32.053Z,30.10
2019-06-07T18:13:33.166Z,29.77
2019-06-07T18:23:34.325Z,29.50
2019-06-07T18:33:35.538Z,29.17
2019-06-07T18:43:36.553Z,28.65
2019-06-07T18:53:37.793Z,28.14
2019-06-07T19:03:38.861Z,27.80
2019-06-07T19:13:41.231Z,27.58
2019-06-07T19:23:42.381Z,27.25
2019-06-07T19:33:49.144Z,26.92
2019-06-07T19:43:46.556Z,26.62
2019-06-07T19:53:47.860Z,26.28
2019-06-07T20:03:49.658Z,25.96
2019-06-07T20:13:50.824Z,26.03
2019-06-07T20:23:53.005Z,25.91
2019-06-07T20:33:56.324Z,25.79
2019-06-07T20:43:57.717Z,25.08
2019-06-07T20:54:00.285Z,24.29
2019-06-07T21:04:01.479Z,22.89
2019-06-07T21:14:04.056Z,21.57
2019-06-07T21:24:06.691Z,20.76
2019-06-07T21:34:11.974Z,20.21
2019-06-07T21:44:10.764Z,19.55
2019-06-07T21:54:14.747Z,19.55
2019-06-07T22:04:14.955Z,18.88
2019-06-07T22:14:16.099Z,18.88
2019-06-07T22:24:17.253Z,19.33
2019-06-07T22:34:19.238Z,19.53
2019-06-07T22:44:20.409Z,19.81
2019-06-07T22:54:21.471Z,19.86
2019-06-07T23:04:22.833Z,19.86
2019-06-07T23:14:25.729Z,19.42
2019-06-07T23:24:27.095Z,19.45
2019-06-07T23:34:28.147Z,19.64
2019-06-07T23:44:29.231Z,19.73
2019-06-07T23:54:30.387Z,19.78
